sensor_id;sensor_type;location;lat;lon;timestamp;P1;durP1;ratioP1;P2;durP2;ratioP2
11141;SDS011;5625;50.122;19.864;2023-06-10T00:00:03;13.07;;;11.90;;
11141;SDS011;5625;50.122;19.864;2023-06-10T00:02:33;13.37;;;12.07;;
11141;SDS011;5625;50.122;19.864;2023-06-10T00:05:02;14.63;;;13.27;;
11141;SDS011;5625;50.122;19.864;2023-06-10T00:07:30;14.13;;;12.90;;
11141;SDS011;5625;50.122;19.864;2023-06-10T00:09:59;14.77;;;13.33;;
11141;SDS011;5625;50.122;19.864;2023-06-10T00:12:30;14.33;;;13.00;;
11141;SDS011;5625;50.122;19.864;2023-06-10T00:15:05;14.67;;;13.47;;
11141;SDS011;5625;50.122;19.864;2023-06-10T00:17:35;16.53;;;15.03;;
11141;SDS011;5625;50.122;19.864;2023-06-10T00:20:07;15.50;;;14.00;;
11141;SDS011;5625;50.122;19.864;2023-06-10T00:22:39;15.43;;;14.00;;
11141;SDS011;5625;50.122;19.864;2023-06-10T00:25:09;15.33;;;14.07;;
11141;SDS011;5625;50.122;19.864;2023-06-10T00:27:40;15.73;;;14.33;;
11141;SDS011;5625;50.122;19.864;2023-06-10T00:30:09;16.33;;;14.63;;
11141;SDS011;5625;50.122;19.864;2023-06-10T00:32:37;17.40;;;15.70;;
11141;SDS011;5625;50.122;19.864;2023-06-10T00:35:06;16.43;;;14.90;;
11141;SDS011;5625;50.122;19.864;2023-06-10T00:37:35;16.67;;;15.17;;
11141;SDS011;5625;50.122;19.864;2023-06-10T00:40:03;16.73;;;15.30;;
11141;SDS011;5625;50.122;19.864;2023-06-10T00:42:35;16.67;;;15.23;;
11141;SDS011;5625;50.122;19.864;2023-06-10T00:45:04;15.80;;;14.50;;
11141;SDS011;5625;50.122;19.864;2023-06-10T00:47:33;16.70;;;15.00;;
11141;SDS011;5625;50.122;19.864;2023-06-10T00:50:02;16.37;;;14.97;;
11141;SDS011;5625;50.122;19.864;2023-06-10T00:52:32;16.30;;;14.80;;
11141;SDS011;5625;50.122;19.864;2023-06-10T00:55:02;16.90;;;15.30;;
11141;SDS011;5625;50.122;19.864;2023-06-10T00:57:30;16.53;;;15.10;;
11141;SDS011;5625;50.122;19.864;2023-06-10T01:00:00;16.37;;;14.87;;
11141;SDS011;5625;50.122;19.864;2023-06-10T01:02:36;16.90;;;15.40;;
11141;SDS011;5625;50.122;19.864;2023-06-10T01:05:04;16.73;;;15.23;;
11141;SDS011;5625;50.122;19.864;2023-06-10T01:07:35;17.70;;;16.03;;
11141;SDS011;5625;50.122;19.864;2023-06-10T01:10:10;18.67;;;17.00;;
11141;SDS011;5625;50.122;19.864;2023-06-10T01:12:44;18.77;;;17.17;;
11141;SDS011;5625;50.122;19.864;2023-06-10T01:15:21;17.47;;;15.67;;
11141;SDS011;5625;50.122;19.864;2023-06-10T01:17:56;18.17;;;16.37;;
11141;SDS011;5625;50.122;19.864;2023-06-10T01:20:25;19.10;;;17.40;;
11141;SDS011;5625;50.122;19.864;2023-06-10T01:22:56;18.43;;;16.67;;
11141;SDS011;5625;50.122;19.864;2023-06-10T01:25:25;18.80;;;17.20;;
11141;SDS011;5625;50.122;19.864;2023-06-10T01:27:57;18.83;;;17.23;;
11141;SDS011;5625;50.122;19.864;2023-06-10T01:30:32;26.40;;;17.80;;
11141;SDS011;5625;50.122;19.864;2023-06-10T01:33:07;18.50;;;16.67;;
11141;SDS011;5625;50.122;19.864;2023-06-10T01:35:38;17.90;;;16.23;;
11141;SDS011;5625;50.122;19.864;2023-06-10T01:38:09;18.47;;;16.83;;
11141;SDS011;5625;50.122;19.864;2023-06-10T01:40:39;19.03;;;17.43;;
11141;SDS011;5625;50.122;19.864;2023-06-10T01:43:08;18.47;;;16.67;;
11141;SDS011;5625;50.122;19.864;2023-06-10T01:45:36;17.93;;;16.40;;
11141;SDS011;5625;50.122;19.864;2023-06-10T01:48:04;17.80;;;16.20;;
11141;SDS011;5625;50.122;19.864;2023-06-10T01:50:33;17.30;;;15.80;;
11141;SDS011;5625;50.122;19.864;2023-06-10T01:53:01;16.27;;;14.97;;
11141;SDS011;5625;50.122;19.864;2023-06-10T01:55:32;16.53;;;15.10;;
11141;SDS011;5625;50.122;19.864;2023-06-10T01:58:01;17.63;;;15.93;;
11141;SDS011;5625;50.122;19.864;2023-06-10T02:00:29;17.50;;;16.00;;
11141;SDS011;5625;50.122;19.864;2023-06-10T02:02:57;17.13;;;15.53;;
11141;SDS011;5625;50.122;19.864;2023-06-10T02:05:25;16.93;;;15.23;;
11141;SDS011;5625;50.122;19.864;2023-06-10T02:07:53;15.97;;;14.67;;
11141;SDS011;5625;50.122;19.864;2023-06-10T02:10:21;16.97;;;15.37;;
11141;SDS011;5625;50.122;19.864;2023-06-10T02:12:51;15.47;;;13.97;;
11141;SDS011;5625;50.122;19.864;2023-06-10T02:15:19;16.23;;;14.83;;
11141;SDS011;5625;50.122;19.864;2023-06-10T02:17:47;16.80;;;15.00;;
11141;SDS011;5625;50.122;19.864;2023-06-10T02:20:15;14.17;;;12.97;;
11141;SDS011;5625;50.122;19.864;2023-06-10T02:22:45;15.40;;;13.73;;
11141;SDS011;5625;50.122;19.864;2023-06-10T02:25:13;15.93;;;14.50;;
11141;SDS011;5625;50.122;19.864;2023-06-10T02:27:41;15.67;;;14.23;;
11141;SDS011;5625;50.122;19.864;2023-06-10T02:30:11;13.93;;;12.70;;
11141;SDS011;5625;50.122;19.864;2023-06-10T02:32:40;14.53;;;13.10;;
11141;SDS011;5625;50.122;19.864;2023-06-10T02:35:09;13.53;;;12.27;;
11141;SDS011;5625;50.122;19.864;2023-06-10T02:37:38;12.87;;;11.67;;
11141;SDS011;5625;50.122;19.864;2023-06-10T02:40:07;13.83;;;12.53;;
11141;SDS011;5625;50.122;19.864;2023-06-10T02:42:36;13.83;;;12.47;;
11141;SDS011;5625;50.122;19.864;2023-06-10T02:45:04;12.77;;;11.33;;
11141;SDS011;5625;50.122;19.864;2023-06-10T02:47:37;13.20;;;12.03;;
11141;SDS011;5625;50.122;19.864;2023-06-10T02:50:06;13.43;;;12.23;;
11141;SDS011;5625;50.122;19.864;2023-06-10T02:52:34;12.07;;;10.97;;
11141;SDS011;5625;50.122;19.864;2023-06-10T02:55:02;13.57;;;12.27;;
11141;SDS011;5625;50.122;19.864;2023-06-10T02:57:34;13.80;;;12.17;;
11141;SDS011;5625;50.122;19.864;2023-06-10T03:00:03;14.13;;;12.83;;
11141;SDS011;5625;50.122;19.864;2023-06-10T03:02:37;13.77;;;12.47;;
11141;SDS011;5625;50.122;19.864;2023-06-10T03:05:06;14.23;;;12.87;;
11141;SDS011;5625;50.122;19.864;2023-06-10T03:07:37;13.97;;;12.20;;
11141;SDS011;5625;50.122;19.864;2023-06-10T03:10:07;13.07;;;11.87;;
11141;SDS011;5625;50.122;19.864;2023-06-10T03:12:36;14.50;;;13.17;;
11141;SDS011;5625;50.122;19.864;2023-06-10T03:15:04;14.70;;;13.40;;
11141;SDS011;5625;50.122;19.864;2023-06-10T03:17:34;14.43;;;13.10;;
11141;SDS011;5625;50.122;19.864;2023-06-10T03:20:03;14.30;;;13.10;;
11141;SDS011;5625;50.122;19.864;2023-06-10T03:22:34;14.43;;;13.23;;
11141;SDS011;5625;50.122;19.864;2023-06-10T03:25:02;14.77;;;13.47;;
11141;SDS011;5625;50.122;19.864;2023-06-10T03:27:30;14.43;;;13.07;;
11141;SDS011;5625;50.122;19.864;2023-06-10T03:29:59;14.87;;;13.40;;
11141;SDS011;5625;50.122;19.864;2023-06-10T03:32:27;14.90;;;13.50;;
11141;SDS011;5625;50.122;19.864;2023-06-10T03:34:55;14.80;;;13.27;;
11141;SDS011;5625;50.122;19.864;2023-06-10T03:37:25;14.07;;;12.73;;
11141;SDS011;5625;50.122;19.864;2023-06-10T03:39:53;13.50;;;12.30;;
11141;SDS011;5625;50.122;19.864;2023-06-10T03:42:21;14.97;;;12.93;;
11141;SDS011;5625;50.122;19.864;2023-06-10T03:44:49;13.63;;;12.33;;
11141;SDS011;5625;50.122;19.864;2023-06-10T03:47:17;13.17;;;11.97;;
11141;SDS011;5625;50.122;19.864;2023-06-10T03:49:45;13.23;;;12.07;;
11141;SDS011;5625;50.122;19.864;2023-06-10T03:52:13;13.87;;;12.47;;
11141;SDS011;5625;50.122;19.864;2023-06-10T03:54:43;13.67;;;12.47;;
11141;SDS011;5625;50.122;19.864;2023-06-10T03:57:11;12.80;;;11.63;;
11141;SDS011;5625;50.122;19.864;2023-06-10T03:59:39;13.57;;;12.27;;
11141;SDS011;5625;50.122;19.864;2023-06-10T04:02:07;13.00;;;11.77;;
11141;SDS011;5625;50.122;19.864;2023-06-10T04:04:35;12.37;;;11.17;;
11141;SDS011;5625;50.122;19.864;2023-06-10T04:07:03;12.53;;;11.27;;
11141;SDS011;5625;50.122;19.864;2023-06-10T04:09:32;13.23;;;11.70;;
11141;SDS011;5625;50.122;19.864;2023-06-10T04:12:02;12.80;;;11.50;;
11141;SDS011;5625;50.122;19.864;2023-06-10T04:14:32;12.20;;;11.00;;
11141;SDS011;5625;50.122;19.864;2023-06-10T04:17:02;14.10;;;10.77;;
11141;SDS011;5625;50.122;19.864;2023-06-10T04:19:32;12.03;;;10.90;;
11141;SDS011;5625;50.122;19.864;2023-06-10T04:22:00;11.27;;;10.27;;
11141;SDS011;5625;50.122;19.864;2023-06-10T04:24:30;11.77;;;10.23;;
11141;SDS011;5625;50.122;19.864;2023-06-10T04:26:58;10.63;;;9.63;;
11141;SDS011;5625;50.122;19.864;2023-06-10T04:29:28;9.90;;;9.10;;
11141;SDS011;5625;50.122;19.864;2023-06-10T04:31:57;10.60;;;9.70;;
11141;SDS011;5625;50.122;19.864;2023-06-10T04:34:28;10.27;;;9.20;;
11141;SDS011;5625;50.122;19.864;2023-06-10T04:36:56;10.37;;;9.27;;
11141;SDS011;5625;50.122;19.864;2023-06-10T04:39:24;11.47;;;9.40;;
11141;SDS011;5625;50.122;19.864;2023-06-10T04:41:52;9.60;;;8.63;;
11141;SDS011;5625;50.122;19.864;2023-06-10T04:44:20;9.33;;;8.33;;
11141;SDS011;5625;50.122;19.864;2023-06-10T04:46:49;9.60;;;8.70;;
11141;SDS011;5625;50.122;19.864;2023-06-10T04:49:18;9.37;;;8.13;;
11141;SDS011;5625;50.122;19.864;2023-06-10T04:51:46;8.00;;;7.30;;
11141;SDS011;5625;50.122;19.864;2023-06-10T04:54:14;8.33;;;7.53;;
11141;SDS011;5625;50.122;19.864;2023-06-10T04:56:42;8.60;;;7.50;;
11141;SDS011;5625;50.122;19.864;2023-06-10T04:59:10;7.33;;;6.67;;
11141;SDS011;5625;50.122;19.864;2023-06-10T05:01:41;9.47;;;7.27;;
11141;SDS011;5625;50.122;19.864;2023-06-10T05:04:10;8.07;;;7.37;;
11141;SDS011;5625;50.122;19.864;2023-06-10T05:06:38;8.10;;;7.40;;
11141;SDS011;5625;50.122;19.864;2023-06-10T05:09:12;7.73;;;7.03;;
11141;SDS011;5625;50.122;19.864;2023-06-10T05:11:41;7.97;;;7.17;;
11141;SDS011;5625;50.122;19.864;2023-06-10T05:14:09;8.67;;;7.03;;
11141;SDS011;5625;50.122;19.864;2023-06-10T05:16:37;7.07;;;6.47;;
11141;SDS011;5625;50.122;19.864;2023-06-10T05:19:05;7.73;;;6.80;;
11141;SDS011;5625;50.122;19.864;2023-06-10T05:21:35;7.30;;;6.60;;
11141;SDS011;5625;50.122;19.864;2023-06-10T05:24:03;7.80;;;7.00;;
11141;SDS011;5625;50.122;19.864;2023-06-10T05:26:32;6.90;;;6.30;;
11141;SDS011;5625;50.122;19.864;2023-06-10T05:29:03;6.37;;;5.73;;
11141;SDS011;5625;50.122;19.864;2023-06-10T05:31:31;7.80;;;6.30;;
11141;SDS011;5625;50.122;19.864;2023-06-10T05:34:03;8.97;;;6.50;;
11141;SDS011;5625;50.122;19.864;2023-06-10T05:36:31;6.90;;;6.40;;
11141;SDS011;5625;50.122;19.864;2023-06-10T05:39:01;8.00;;;6.60;;
11141;SDS011;5625;50.122;19.864;2023-06-10T05:41:29;6.60;;;6.00;;
11141;SDS011;5625;50.122;19.864;2023-06-10T05:43:59;6.37;;;5.77;;
11141;SDS011;5625;50.122;19.864;2023-06-10T05:46:27;7.00;;;6.00;;
11141;SDS011;5625;50.122;19.864;2023-06-10T05:48:56;7.07;;;6.00;;
11141;SDS011;5625;50.122;19.864;2023-06-10T05:51:24;6.73;;;6.00;;
11141;SDS011;5625;50.122;19.864;2023-06-10T05:53:53;6.30;;;5.70;;
11141;SDS011;5625;50.122;19.864;2023-06-10T05:56:23;6.50;;;5.90;;
11141;SDS011;5625;50.122;19.864;2023-06-10T05:58:51;6.37;;;5.77;;
11141;SDS011;5625;50.122;19.864;2023-06-10T06:01:19;6.00;;;5.50;;
11141;SDS011;5625;50.122;19.864;2023-06-10T06:03:48;6.27;;;5.70;;
11141;SDS011;5625;50.122;19.864;2023-06-10T06:06:16;8.43;;;5.13;;
11141;SDS011;5625;50.122;19.864;2023-06-10T06:08:46;8.10;;;5.67;;
11141;SDS011;5625;50.122;19.864;2023-06-10T06:11:14;6.00;;;5.40;;
11141;SDS011;5625;50.122;19.864;2023-06-10T06:13:46;6.53;;;5.87;;
11141;SDS011;5625;50.122;19.864;2023-06-10T06:16:18;6.27;;;5.50;;
11141;SDS011;5625;50.122;19.864;2023-06-10T06:18:46;6.07;;;5.47;;
11141;SDS011;5625;50.122;19.864;2023-06-10T06:21:14;6.00;;;5.40;;
11141;SDS011;5625;50.122;19.864;2023-06-10T06:23:42;6.33;;;5.63;;
11141;SDS011;5625;50.122;19.864;2023-06-10T06:26:10;5.90;;;5.30;;
11141;SDS011;5625;50.122;19.864;2023-06-10T06:28:38;5.93;;;5.40;;
11141;SDS011;5625;50.122;19.864;2023-06-10T06:31:08;6.70;;;5.70;;
11141;SDS011;5625;50.122;19.864;2023-06-10T06:33:36;6.07;;;5.57;;
11141;SDS011;5625;50.122;19.864;2023-06-10T06:36:04;7.03;;;6.30;;
11141;SDS011;5625;50.122;19.864;2023-06-10T06:38:35;7.17;;;6.47;;
11141;SDS011;5625;50.122;19.864;2023-06-10T06:41:03;6.67;;;6.03;;
11141;SDS011;5625;50.122;19.864;2023-06-10T06:43:32;7.30;;;6.60;;
11141;SDS011;5625;50.122;19.864;2023-06-10T06:46:01;6.30;;;5.60;;
11141;SDS011;5625;50.122;19.864;2023-06-10T06:48:30;5.97;;;5.53;;
11141;SDS011;5625;50.122;19.864;2023-06-10T06:50:59;7.97;;;6.00;;
11141;SDS011;5625;50.122;19.864;2023-06-10T06:53:27;6.30;;;5.80;;
11141;SDS011;5625;50.122;19.864;2023-06-10T06:55:57;7.43;;;5.97;;
11141;SDS011;5625;50.122;19.864;2023-06-10T06:58:26;6.17;;;5.77;;
11141;SDS011;5625;50.122;19.864;2023-06-10T07:00:54;7.30;;;5.63;;
11141;SDS011;5625;50.122;19.864;2023-06-10T07:03:22;6.37;;;5.77;;
11141;SDS011;5625;50.122;19.864;2023-06-10T07:05:51;6.17;;;5.40;;
11141;SDS011;5625;50.122;19.864;2023-06-10T07:08:21;5.87;;;5.37;;
11141;SDS011;5625;50.122;19.864;2023-06-10T07:10:49;7.97;;;6.07;;
11141;SDS011;5625;50.122;19.864;2023-06-10T07:13:20;6.33;;;5.73;;
11141;SDS011;5625;50.122;19.864;2023-06-10T07:15:48;6.53;;;5.77;;
11141;SDS011;5625;50.122;19.864;2023-06-10T07:18:16;5.70;;;5.00;;
11141;SDS011;5625;50.122;19.864;2023-06-10T07:20:44;6.27;;;5.30;;
11141;SDS011;5625;50.122;19.864;2023-06-10T07:23:13;7.57;;;5.23;;
11141;SDS011;5625;50.122;19.864;2023-06-10T07:25:42;5.37;;;4.93;;
11141;SDS011;5625;50.122;19.864;2023-06-10T07:28:10;6.47;;;5.20;;
11141;SDS011;5625;50.122;19.864;2023-06-10T07:30:38;5.83;;;4.67;;
11141;SDS011;5625;50.122;19.864;2023-06-10T07:33:06;5.87;;;5.10;;
11141;SDS011;5625;50.122;19.864;2023-06-10T07:35:34;5.20;;;4.70;;
11141;SDS011;5625;50.122;19.864;2023-06-10T07:38:02;5.83;;;4.63;;
11141;SDS011;5625;50.122;19.864;2023-06-10T07:40:31;6.77;;;4.90;;
11141;SDS011;5625;50.122;19.864;2023-06-10T07:43:00;5.27;;;4.80;;
11141;SDS011;5625;50.122;19.864;2023-06-10T07:45:28;5.00;;;4.60;;
11141;SDS011;5625;50.122;19.864;2023-06-10T07:47:56;4.90;;;4.40;;
11141;SDS011;5625;50.122;19.864;2023-06-10T07:50:25;4.60;;;4.30;;
11141;SDS011;5625;50.122;19.864;2023-06-10T07:52:53;5.87;;;4.40;;
11141;SDS011;5625;50.122;19.864;2023-06-10T07:55:21;5.40;;;4.90;;
11141;SDS011;5625;50.122;19.864;2023-06-10T07:57:51;4.97;;;4.37;;
11141;SDS011;5625;50.122;19.864;2023-06-10T08:00:19;7.47;;;4.37;;
11141;SDS011;5625;50.122;19.864;2023-06-10T08:02:48;5.73;;;4.20;;
11141;SDS011;5625;50.122;19.864;2023-06-10T08:05:17;5.57;;;4.00;;
11141;SDS011;5625;50.122;19.864;2023-06-10T08:07:45;4.50;;;4.20;;
11141;SDS011;5625;50.122;19.864;2023-06-10T08:10:13;4.70;;;4.30;;
11141;SDS011;5625;50.122;19.864;2023-06-10T08:12:41;5.87;;;4.80;;
11141;SDS011;5625;50.122;19.864;2023-06-10T08:15:11;5.63;;;4.27;;
11141;SDS011;5625;50.122;19.864;2023-06-10T08:17:39;5.23;;;4.27;;
11141;SDS011;5625;50.122;19.864;2023-06-10T08:20:07;4.20;;;3.87;;
11141;SDS011;5625;50.122;19.864;2023-06-10T08:22:35;4.30;;;3.90;;
11141;SDS011;5625;50.122;19.864;2023-06-10T08:25:06;4.37;;;3.97;;
11141;SDS011;5625;50.122;19.864;2023-06-10T08:27:37;4.27;;;3.93;;
11141;SDS011;5625;50.122;19.864;2023-06-10T08:30:06;4.60;;;4.20;;
11141;SDS011;5625;50.122;19.864;2023-06-10T08:32:38;5.43;;;4.70;;
11141;SDS011;5625;50.122;19.864;2023-06-10T08:35:06;4.60;;;4.20;;
11141;SDS011;5625;50.122;19.864;2023-06-10T08:37:35;4.63;;;4.20;;
11141;SDS011;5625;50.122;19.864;2023-06-10T08:40:04;5.38;;;4.38;;
11141;SDS011;5625;50.122;19.864;2023-06-10T08:42:33;4.40;;;4.10;;
11141;SDS011;5625;50.122;19.864;2023-06-10T08:45:07;4.60;;;4.00;;
11141;SDS011;5625;50.122;19.864;2023-06-10T08:47:39;4.10;;;3.70;;
11141;SDS011;5625;50.122;19.864;2023-06-10T08:50:12;5.57;;;4.13;;
11141;SDS011;5625;50.122;19.864;2023-06-10T08:52:42;4.20;;;3.80;;
11141;SDS011;5625;50.122;19.864;2023-06-10T08:55:12;7.15;;;4.65;;
11141;SDS011;5625;50.122;19.864;2023-06-10T08:57:44;4.75;;;4.20;;
11141;SDS011;5625;50.122;19.864;2023-06-10T09:00:14;5.15;;;4.05;;
11141;SDS011;5625;50.122;19.864;2023-06-10T09:02:48;4.22;;;3.85;;
11141;SDS011;5625;50.122;19.864;2023-06-10T09:05:17;5.15;;;3.90;;
11141;SDS011;5625;50.122;19.864;2023-06-10T09:07:46;5.47;;;4.30;;
11141;SDS011;5625;50.122;19.864;2023-06-10T09:10:15;4.18;;;3.88;;
11141;SDS011;5625;50.122;19.864;2023-06-10T09:12:45;4.55;;;4.15;;
11141;SDS011;5625;50.122;19.864;2023-06-10T09:15:13;6.07;;;3.95;;
11141;SDS011;5625;50.122;19.864;2023-06-10T09:17:43;4.10;;;3.80;;
11141;SDS011;5625;50.122;19.864;2023-06-10T09:20:13;3.80;;;3.50;;
11141;SDS011;5625;50.122;19.864;2023-06-10T09:22:42;5.43;;;3.75;;
11141;SDS011;5625;50.122;19.864;2023-06-10T09:25:10;4.10;;;3.70;;
11141;SDS011;5625;50.122;19.864;2023-06-10T09:27:45;6.97;;;3.95;;
11141;SDS011;5625;50.122;19.864;2023-06-10T09:30:26;4.03;;;3.50;;
11141;SDS011;5625;50.122;19.864;2023-06-10T09:32:55;4.40;;;3.78;;
11141;SDS011;5625;50.122;19.864;2023-06-10T09:35:27;4.00;;;3.70;;
11141;SDS011;5625;50.122;19.864;2023-06-10T09:37:56;4.72;;;3.50;;
11141;SDS011;5625;50.122;19.864;2023-06-10T09:40:25;4.75;;;4.32;;
11141;SDS011;5625;50.122;19.864;2023-06-10T09:42:54;5.50;;;5.00;;
11141;SDS011;5625;50.122;19.864;2023-06-10T09:45:29;4.43;;;3.72;;
11141;SDS011;5625;50.122;19.864;2023-06-10T09:47:58;4.90;;;3.70;;
11141;SDS011;5625;50.122;19.864;2023-06-10T09:50:27;5.25;;;3.95;;
11141;SDS011;5625;50.122;19.864;2023-06-10T09:53:00;6.88;;;4.20;;
11141;SDS011;5625;50.122;19.864;2023-06-10T09:55:30;4.25;;;3.85;;
11141;SDS011;5625;50.122;19.864;2023-06-10T09:58:04;3.60;;;3.30;;
11141;SDS011;5625;50.122;19.864;2023-06-10T10:00:35;5.28;;;3.95;;
11141;SDS011;5625;50.122;19.864;2023-06-10T10:03:04;4.07;;;3.80;;
11141;SDS011;5625;50.122;19.864;2023-06-10T10:05:34;3.63;;;3.30;;
11141;SDS011;5625;50.122;19.864;2023-06-10T10:08:03;3.90;;;3.60;;
11141;SDS011;5625;50.122;19.864;2023-06-10T10:10:31;3.60;;;3.30;;
11141;SDS011;5625;50.122;19.864;2023-06-10T10:13:00;3.63;;;3.33;;
11141;SDS011;5625;50.122;19.864;2023-06-10T10:15:29;7.30;;;3.45;;
11141;SDS011;5625;50.122;19.864;2023-06-10T10:18:02;5.22;;;3.70;;
11141;SDS011;5625;50.122;19.864;2023-06-10T10:20:36;3.55;;;3.25;;
11141;SDS011;5625;50.122;19.864;2023-06-10T10:23:13;3.42;;;3.13;;
11141;SDS011;5625;50.122;19.864;2023-06-10T10:25:49;3.97;;;3.33;;
11141;SDS011;5625;50.122;19.864;2023-06-10T10:28:21;3.72;;;3.42;;
11141;SDS011;5625;50.122;19.864;2023-06-10T10:30:54;4.95;;;3.10;;
11141;SDS011;5625;50.122;19.864;2023-06-10T10:33:26;4.25;;;3.45;;
11141;SDS011;5625;50.122;19.864;2023-06-10T10:36:02;3.50;;;3.13;;
11141;SDS011;5625;50.122;19.864;2023-06-10T10:38:31;2.83;;;2.63;;
11141;SDS011;5625;50.122;19.864;2023-06-10T10:41:00;3.15;;;2.78;;
11141;SDS011;5625;50.122;19.864;2023-06-10T10:43:29;3.30;;;3.00;;
11141;SDS011;5625;50.122;19.864;2023-06-10T10:45:58;3.85;;;3.55;;
11141;SDS011;5625;50.122;19.864;2023-06-10T10:48:26;3.42;;;3.13;;
11141;SDS011;5625;50.122;19.864;2023-06-10T10:51:02;3.55;;;3.25;;
11141;SDS011;5625;50.122;19.864;2023-06-10T10:53:30;3.92;;;3.22;;
11141;SDS011;5625;50.122;19.864;2023-06-10T10:55:58;3.50;;;3.20;;
11141;SDS011;5625;50.122;19.864;2023-06-10T10:58:27;3.35;;;3.03;;
11141;SDS011;5625;50.122;19.864;2023-06-10T11:00:55;3.42;;;2.90;;
11141;SDS011;5625;50.122;19.864;2023-06-10T11:03:28;3.22;;;3.03;;
11141;SDS011;5625;50.122;19.864;2023-06-10T11:05:57;4.10;;;3.20;;
11141;SDS011;5625;50.122;19.864;2023-06-10T11:11:20;4.32;;;3.13;;
11141;SDS011;5625;50.122;19.864;2023-06-10T11:14:04;3.30;;;3.00;;
11141;SDS011;5625;50.122;19.864;2023-06-10T11:16:39;4.25;;;3.38;;
11141;SDS011;5625;50.122;19.864;2023-06-10T11:19:09;3.53;;;3.23;;
11141;SDS011;5625;50.122;19.864;2023-06-10T11:21:45;3.60;;;3.05;;
11141;SDS011;5625;50.122;19.864;2023-06-10T11:24:27;5.20;;;3.40;;
11141;SDS011;5625;50.122;19.864;2023-06-10T11:29:56;4.65;;;3.20;;
11141;SDS011;5625;50.122;19.864;2023-06-10T11:32:43;3.65;;;3.38;;
11141;SDS011;5625;50.122;19.864;2023-06-10T11:35:12;3.70;;;3.28;;
11141;SDS011;5625;50.122;19.864;2023-06-10T11:37:40;3.22;;;2.92;;
11141;SDS011;5625;50.122;19.864;2023-06-10T11:40:10;5.18;;;3.10;;
11141;SDS011;5625;50.122;19.864;2023-06-10T11:42:41;3.22;;;2.92;;
11141;SDS011;5625;50.122;19.864;2023-06-10T11:45:14;3.53;;;2.88;;
11141;SDS011;5625;50.122;19.864;2023-06-10T11:47:55;3.22;;;2.90;;
11141;SDS011;5625;50.122;19.864;2023-06-10T11:50:30;4.35;;;3.75;;
11141;SDS011;5625;50.122;19.864;2023-06-10T11:52:59;4.40;;;4.00;;
11141;SDS011;5625;50.122;19.864;2023-06-10T11:55:40;3.10;;;2.55;;
11141;SDS011;5625;50.122;19.864;2023-06-10T11:58:14;2.85;;;2.58;;
11141;SDS011;5625;50.122;19.864;2023-06-10T12:00:45;3.57;;;2.97;;
11141;SDS011;5625;50.122;19.864;2023-06-10T12:03:14;3.22;;;2.92;;
11141;SDS011;5625;50.122;19.864;2023-06-10T12:05:54;5.45;;;3.08;;
11141;SDS011;5625;50.122;19.864;2023-06-10T12:08:23;3.67;;;3.30;;
11141;SDS011;5625;50.122;19.864;2023-06-10T12:10:53;5.82;;;3.10;;
11141;SDS011;5625;50.122;19.864;2023-06-10T12:13:22;5.95;;;2.78;;
11141;SDS011;5625;50.122;19.864;2023-06-10T12:15:51;2.97;;;2.78;;
11141;SDS011;5625;50.122;19.864;2023-06-10T12:18:19;3.33;;;3.00;;
11141;SDS011;5625;50.122;19.864;2023-06-10T12:20:48;2.63;;;2.42;;
11141;SDS011;5625;50.122;19.864;2023-06-10T12:23:19;3.58;;;2.60;;
11141;SDS011;5625;50.122;19.864;2023-06-10T12:25:51;4.25;;;2.25;;
11141;SDS011;5625;50.122;19.864;2023-06-10T12:28:22;2.45;;;2.25;;
11141;SDS011;5625;50.122;19.864;2023-06-10T12:30:52;2.42;;;2.33;;
11141;SDS011;5625;50.122;19.864;2023-06-10T12:33:34;3.00;;;2.70;;
11141;SDS011;5625;50.122;19.864;2023-06-10T12:36:02;2.60;;;2.40;;
11141;SDS011;5625;50.122;19.864;2023-06-10T12:38:30;3.03;;;2.38;;
11141;SDS011;5625;50.122;19.864;2023-06-10T12:41:03;2.90;;;2.40;;
11141;SDS011;5625;50.122;19.864;2023-06-10T12:43:31;3.28;;;2.30;;
11141;SDS011;5625;50.122;19.864;2023-06-10T12:46:08;4.55;;;2.50;;
11141;SDS011;5625;50.122;19.864;2023-06-10T12:48:36;3.28;;;2.40;;
11141;SDS011;5625;50.122;19.864;2023-06-10T12:51:17;3.13;;;2.75;;
11141;SDS011;5625;50.122;19.864;2023-06-10T12:53:47;2.88;;;2.40;;
11141;SDS011;5625;50.122;19.864;2023-06-10T12:56:17;2.90;;;2.38;;
11141;SDS011;5625;50.122;19.864;2023-06-10T12:58:45;2.60;;;2.40;;
11141;SDS011;5625;50.122;19.864;2023-06-10T13:01:13;3.35;;;2.40;;
11141;SDS011;5625;50.122;19.864;2023-06-10T13:03:41;2.53;;;2.30;;
11141;SDS011;5625;50.122;19.864;2023-06-10T13:06:09;2.90;;;2.60;;
11141;SDS011;5625;50.122;19.864;2023-06-10T13:08:38;3.42;;;2.50;;
11141;SDS011;5625;50.122;19.864;2023-06-10T13:11:07;2.33;;;2.22;;
11141;SDS011;5625;50.122;19.864;2023-06-10T13:13:37;2.80;;;2.60;;
11141;SDS011;5625;50.122;19.864;2023-06-10T13:16:05;2.80;;;2.60;;
11141;SDS011;5625;50.122;19.864;2023-06-10T13:18:34;3.35;;;2.95;;
11141;SDS011;5625;50.122;19.864;2023-06-10T13:21:04;2.97;;;2.63;;
11141;SDS011;5625;50.122;19.864;2023-06-10T13:23:32;3.58;;;2.58;;
11141;SDS011;5625;50.122;19.864;2023-06-10T13:26:00;3.70;;;2.78;;
11141;SDS011;5625;50.122;19.864;2023-06-10T13:28:29;2.75;;;2.58;;
11141;SDS011;5625;50.122;19.864;2023-06-10T13:31:02;2.80;;;2.60;;
11141;SDS011;5625;50.122;19.864;2023-06-10T13:33:30;4.03;;;3.20;;
11141;SDS011;5625;50.122;19.864;2023-06-10T13:35:58;4.38;;;2.70;;
11141;SDS011;5625;50.122;19.864;2023-06-10T13:38:26;3.92;;;2.97;;
11141;SDS011;5625;50.122;19.864;2023-06-10T13:40:54;3.15;;;2.85;;
11141;SDS011;5625;50.122;19.864;2023-06-10T13:43:23;3.30;;;3.08;;
11141;SDS011;5625;50.122;19.864;2023-06-10T13:45:51;3.03;;;2.83;;
11141;SDS011;5625;50.122;19.864;2023-06-10T13:48:21;3.17;;;2.83;;
11141;SDS011;5625;50.122;19.864;2023-06-10T13:50:49;3.05;;;2.60;;
11141;SDS011;5625;50.122;19.864;2023-06-10T13:53:20;2.58;;;2.42;;
11141;SDS011;5625;50.122;19.864;2023-06-10T13:55:48;2.60;;;2.38;;
11141;SDS011;5625;50.122;19.864;2023-06-10T13:58:16;2.63;;;2.45;;
11141;SDS011;5625;50.122;19.864;2023-06-10T14:00:44;3.28;;;2.35;;
11141;SDS011;5625;50.122;19.864;2023-06-10T14:03:12;2.33;;;2.00;;
11141;SDS011;5625;50.122;19.864;2023-06-10T14:05:41;3.63;;;2.22;;
11141;SDS011;5625;50.122;19.864;2023-06-10T14:08:10;3.45;;;2.40;;
11141;SDS011;5625;50.122;19.864;2023-06-10T14:10:38;2.63;;;2.42;;
11141;SDS011;5625;50.122;19.864;2023-06-10T14:13:08;3.88;;;2.30;;
11141;SDS011;5625;50.122;19.864;2023-06-10T14:15:36;2.72;;;2.47;;
11141;SDS011;5625;50.122;19.864;2023-06-10T14:18:04;3.35;;;2.00;;
11141;SDS011;5625;50.122;19.864;2023-06-10T14:20:33;2.30;;;2.10;;
11141;SDS011;5625;50.122;19.864;2023-06-10T14:23:03;4.00;;;2.53;;
11141;SDS011;5625;50.122;19.864;2023-06-10T14:25:31;2.20;;;2.05;;
11141;SDS011;5625;50.122;19.864;2023-06-10T14:27:59;2.60;;;2.40;;
11141;SDS011;5625;50.122;19.864;2023-06-10T14:30:27;2.80;;;2.38;;
11141;SDS011;5625;50.122;19.864;2023-06-10T14:32:55;2.92;;;2.63;;
11141;SDS011;5625;50.122;19.864;2023-06-10T14:35:23;3.28;;;2.30;;
11141;SDS011;5625;50.122;19.864;2023-06-10T14:37:51;2.17;;;2.00;;
11141;SDS011;5625;50.122;19.864;2023-06-10T14:40:20;3.90;;;2.47;;
11141;SDS011;5625;50.122;19.864;2023-06-10T14:42:50;2.38;;;2.20;;
11141;SDS011;5625;50.122;19.864;2023-06-10T14:45:18;3.00;;;2.30;;
11141;SDS011;5625;50.122;19.864;2023-06-10T14:47:46;2.60;;;2.30;;
11141;SDS011;5625;50.122;19.864;2023-06-10T14:50:14;2.30;;;2.10;;
11141;SDS011;5625;50.122;19.864;2023-06-10T14:52:42;3.30;;;2.23;;
11141;SDS011;5625;50.122;19.864;2023-06-10T14:55:10;2.43;;;2.23;;
11141;SDS011;5625;50.122;19.864;2023-06-10T14:57:40;2.25;;;2.05;;
11141;SDS011;5625;50.122;19.864;2023-06-10T15:00:08;2.60;;;2.33;;